createdAt,value
2023-02-06T00:02:59.261Z,42.21
2023-02-06T00:07:00.564Z,42.81
2023-02-06T00:11:07.306Z,42.74
2023-02-06T00:15:09.151Z,43.61
2023-02-06T00:19:10.510Z,43.47
2023-02-06T00:23:11.895Z,42.78
2023-02-06T00:27:13.185Z,43.41
2023-02-06T00:31:15.145Z,43.97
2023-02-06T00:35:16.726Z,45.09
2023-02-06T00:39:19.039Z,42.72
2023-02-06T00:43:20.400Z,43.70
2023-02-06T00:47:21.729Z,42.94
2023-02-06T00:51:23.075Z,43.09
2023-02-06T00:55:24.392Z,43.27
2023-02-06T00:59:25.761Z,44.13
2023-02-06T01:03:27.200Z,43.21
2023-02-06T01:07:28.528Z,43.67
2023-02-06T01:11:30.070Z,43.45
2023-02-06T01:15:31.371Z,43.52
2023-02-06T01:19:32.744Z,44.24
2023-02-06T01:23:34.060Z,43.98
2023-02-06T01:27:39.056Z,44.28
2023-02-06T01:31:40.498Z,44.35
2023-02-06T01:35:41.801Z,44.04
2023-02-06T01:39:43.213Z,44.21
2023-02-06T01:43:48.191Z,44.66
2023-02-06T01:47:53.835Z,44.23
2023-02-06T01:52:00.240Z,44.48
2023-02-06T01:56:04.710Z,44.39
2023-02-06T02:00:08.458Z,43.82
2023-02-06T02:04:15.191Z,44.70
2023-02-06T02:08:22.573Z,44.28
2023-02-06T02:12:25.394Z,44.40
2023-02-06T02:16:35.687Z,44.63
2023-02-06T02:21:18.925Z,44.74
2023-02-06T02:25:57.797Z,45.05
2023-02-06T02:30:32.355Z,44.84
2023-02-06T02:34:58.939Z,44.49
2023-02-06T02:39:14.410Z,44.57
2023-02-06T02:43:18.422Z,44.73
2023-02-06T02:47:25.340Z,45.12
2023-02-06T02:51:26.676Z,45.20
2023-02-06T02:55:28.049Z,45.10
2023-02-06T02:59:37.312Z,44.66
2023-02-06T03:03:42.006Z,44.40
2023-02-06T03:07:49.449Z,44.86
2023-02-06T03:11:59.458Z,45.52
2023-02-06T03:16:03.561Z,44.38
2023-02-06T03:20:07.934Z,45.29
2023-02-06T03:24:15.291Z,45.24
2023-02-06T03:28:32.226Z,45.85
2023-02-06T03:32:36.867Z,45.45
2023-02-06T03:36:38.424Z,45.38
2023-02-06T03:40:43.114Z,45.41
2023-02-06T03:44:51.147Z,45.08
2023-02-06T03:48:57.217Z,44.84
2023-02-06T03:53:01.471Z,44.99
2023-02-06T03:57:05.892Z,44.78
2023-02-06T04:01:08.027Z,45.17
2023-02-06T04:05:10.522Z,45.18
2023-02-06T04:09:12.163Z,45.26
2023-02-06T04:13:13.469Z,44.37
2023-02-06T04:17:21.097Z,45.47
2023-02-06T04:21:32.754Z,45.29
2023-02-06T04:25:34.981Z,46.04
2023-02-06T04:29:36.634Z,45.35
2023-02-06T04:33:37.902Z,44.59
2023-02-06T04:37:39.273Z,44.98
2023-02-06T04:41:40.613Z,46.16
2023-02-06T04:45:41.936Z,46.74
2023-02-06T04:49:43.240Z,45.15
2023-02-06T04:53:44.809Z,45.45
2023-02-06T04:57:46.154Z,45.47
2023-02-06T05:01:48.055Z,45.59
2023-02-06T05:05:49.520Z,45.56
2023-02-06T05:09:50.912Z,45.60
2023-02-06T05:13:52.258Z,45.59
2023-02-06T05:17:54.317Z,45.85
2023-02-06T05:21:55.694Z,45.41
2023-02-06T05:25:56.958Z,45.23
2023-02-06T05:29:58.263Z,45.15
2023-02-06T05:33:59.578Z,44.89
2023-02-06T05:38:00.955Z,45.06
2023-02-06T05:42:02.317Z,45.57
2023-02-06T05:46:04.218Z,45.39
2023-02-06T05:50:06.036Z,44.83
2023-02-06T05:54:07.443Z,45.20
2023-02-06T05:58:08.793Z,44.86
2023-02-06T06:02:10.150Z,44.47
2023-02-06T06:06:11.552Z,44.59
2023-02-06T06:10:13.549Z,45.02
2023-02-06T06:14:14.965Z,44.43
2023-02-06T06:18:16.298Z,44.84
2023-02-06T06:22:17.599Z,44.73
2023-02-06T06:26:18.990Z,44.17
2023-02-06T06:30:20.279Z,44.28
2023-02-06T06:34:21.764Z,44.21
2023-02-06T06:38:23.163Z,44.43
2023-02-06T06:42:24.483Z,43.97
2023-02-06T06:46:26.553Z,43.88
2023-02-06T06:50:28.018Z,44.19
2023-02-06T06:54:29.399Z,44.48
2023-02-06T06:58:30.821Z,43.88
2023-02-06T07:02:32.135Z,43.55
2023-02-06T07:06:33.637Z,43.25
2023-02-06T07:10:35.081Z,43.64
2023-02-06T07:14:36.443Z,44.08
2023-02-06T07:18:39.861Z,43.98
2023-02-06T07:22:41.201Z,44.48
2023-02-06T07:26:43.269Z,43.78
2023-02-06T07:30:44.678Z,44.52
2023-02-06T07:34:46.045Z,44.64
2023-02-06T07:38:47.464Z,44.08
2023-02-06T07:42:49.028Z,44.17
2023-02-06T07:46:51.935Z,44.46
2023-02-06T07:50:53.308Z,44.96
2023-02-06T07:54:54.635Z,44.59
2023-02-06T07:58:55.893Z,43.73
2023-02-06T08:02:57.329Z,43.59
2023-02-06T08:06:58.663Z,44.09
2023-02-06T08:11:00.001Z,43.89
2023-02-06T08:15:01.321Z,43.81
2023-02-06T08:19:02.577Z,43.91
2023-02-06T08:23:04.176Z,43.97
2023-02-06T08:27:07.125Z,43.67
2023-02-06T08:31:18.031Z,43.32
2023-02-06T08:35:19.439Z,43.69
2023-02-06T08:39:20.769Z,43.09
2023-02-06T08:43:22.245Z,43.32
2023-02-06T08:47:23.631Z,42.67
2023-02-06T08:51:28.437Z,41.77
2023-02-06T08:55:29.694Z,42.14
2023-02-06T08:59:31.244Z,41.71
2023-02-06T09:03:32.530Z,41.30
2023-02-06T09:07:33.849Z,41.23
2023-02-06T09:11:35.465Z,40.61
2023-02-06T09:15:37.938Z,40.39
2023-02-06T09:19:39.517Z,39.82
2023-02-06T09:23:43.897Z,37.82
2023-02-06T09:27:46.809Z,37.15
2023-02-06T09:31:48.295Z,37.85
2023-02-06T09:35:49.849Z,38.57
2023-02-06T09:39:51.233Z,41.47
2023-02-06T09:44:11.067Z,40.31
2023-02-06T09:48:20.673Z,38.81
2023-02-06T09:52:37.190Z,37.95
2023-02-06T09:56:54.976Z,37.66
2023-02-06T10:01:10.228Z,37.87
2023-02-06T10:05:42.031Z,38.02
2023-02-06T10:10:02.458Z,38.62
2023-02-06T10:14:18.917Z,37.89
2023-02-06T10:18:54.387Z,36.96
2023-02-06T10:23:12.739Z,36.60
2023-02-06T10:27:15.062Z,35.73
2023-02-06T10:31:25.649Z,35.48
2023-02-06T10:35:46.074Z,32.25
2023-02-06T10:39:50.485Z,29.97
2023-02-06T10:43:57.712Z,28.71
2023-02-06T10:48:04.285Z,29.47
2023-02-06T10:52:33.346Z,25.26
2023-02-06T10:56:44.193Z,22.48
2023-02-06T11:00:48.149Z,22.47
2023-02-06T11:05:11.222Z,23.51
2023-02-06T11:09:13.774Z,27.19
2023-02-06T11:13:26.763Z,28.36
2023-02-06T11:17:28.428Z,30.35
2023-02-06T11:21:48.620Z,27.07
2023-02-06T11:26:13.957Z,26.32
2023-02-06T11:30:29.671Z,26.48
2023-02-06T11:34:36.313Z,26.93
2023-02-06T11:38:37.624Z,24.41
2023-02-06T11:42:39.030Z,23.32
2023-02-06T11:46:40.474Z,27.55
2023-02-06T11:50:41.786Z,27.92
2023-02-06T11:54:53.984Z,28.86
2023-02-06T11:59:07.211Z,28.11
2023-02-06T12:03:32.085Z,31.06
2023-02-06T12:07:41.915Z,31.84
2023-02-06T12:12:00.226Z,32.83
2023-02-06T12:16:05.598Z,33.37
2023-02-06T12:20:15.354Z,34.26
2023-02-06T12:24:23.127Z,33.75
2023-02-06T12:28:36.568Z,34.14
2023-02-06T12:32:43.409Z,35.03
2023-02-06T12:36:58.778Z,33.78
2023-02-06T12:41:06.377Z,33.69
2023-02-06T12:45:15.213Z,33.55
2023-02-06T12:49:21.920Z,34.88
2023-02-06T12:53:29.723Z,34.62
2023-02-06T12:57:32.061Z,34.18
2023-02-06T13:02:00.550Z,33.50
2023-02-06T13:06:23.539Z,34.17
2023-02-06T13:10:26.414Z,34.72
2023-02-06T13:14:29.564Z,33.86
2023-02-06T13:18:45.394Z,33.66
2023-02-06T13:22:50.873Z,33.26
2023-02-06T13:26:52.137Z,33.76
2023-02-06T13:31:02.738Z,35.08
2023-02-06T13:35:19.479Z,35.33
2023-02-06T13:39:32.287Z,34.97
2023-02-06T13:43:34.660Z,35.48
2023-02-06T13:48:05.250Z,35.47
2023-02-06T13:52:12.747Z,35.95
2023-02-06T13:56:41.669Z,36.28
2023-02-06T14:00:47.187Z,36.24
2023-02-06T14:04:49.970Z,36.80
2023-02-06T14:09:19.309Z,36.59
2023-02-06T14:13:30.341Z,37.41
2023-02-06T14:17:37.465Z,38.43
2023-02-06T14:22:16.441Z,39.16
2023-02-06T14:27:05.540Z,39.10
2023-02-06T14:31:46.107Z,39.02
2023-02-06T14:36:23.424Z,39.92
2023-02-06T14:40:29.127Z,39.42
2023-02-06T14:44:31.074Z,38.36
2023-02-06T14:48:40.154Z,39.43
2023-02-06T14:52:41.613Z,38.80
2023-02-06T14:56:42.925Z,39.02
2023-02-06T15:00:44.408Z,38.76
2023-02-06T15:04:47.548Z,39.12
2023-02-06T15:08:50.560Z,39.91
2023-02-06T15:12:53.153Z,39.04
2023-02-06T15:16:59.195Z,38.04
2023-02-06T15:21:06.381Z,39.13
2023-02-06T15:25:46.121Z,39.03
2023-02-06T15:29:51.852Z,38.63
2023-02-06T15:33:57.863Z,41.91
2023-02-06T15:38:06.472Z,40.18
2023-02-06T15:42:09.398Z,41.64
2023-02-06T15:46:10.975Z,40.08
2023-02-06T15:50:19.190Z,41.14
2023-02-06T15:54:26.880Z,42.64
2023-02-06T15:58:29.822Z,41.13
2023-02-06T16:02:34.763Z,41.49
2023-02-06T16:06:37.153Z,41.59
2023-02-06T16:10:40.188Z,41.77
2023-02-06T16:14:51.269Z,41.90
2023-02-06T16:18:55.007Z,41.04
2023-02-06T16:23:17.614Z,40.61
2023-02-06T16:27:22.404Z,41.44
2023-02-06T16:31:25.874Z,41.60
2023-02-06T16:35:27.352Z,41.76
2023-02-06T16:39:28.644Z,40.90
2023-02-06T16:43:31.221Z,41.76
2023-02-06T16:47:32.954Z,41.01
2023-02-06T16:51:34.404Z,42.21
2023-02-06T16:55:35.793Z,41.84
2023-02-06T16:59:37.556Z,41.65
2023-02-06T17:03:38.979Z,42.55
2023-02-06T17:07:41.057Z,41.36
2023-02-06T17:11:42.483Z,40.87
2023-02-06T17:15:44.219Z,40.46
2023-02-06T17:19:46.668Z,40.96
2023-02-06T17:23:50.153Z,40.40
2023-02-06T17:27:52.206Z,40.86
2023-02-06T17:31:53.559Z,40.85
2023-02-06T17:35:55.036Z,41.04
2023-02-06T17:39:56.372Z,41.26
2023-02-06T17:43:57.645Z,41.17
2023-02-06T17:47:59.308Z,41.64
2023-02-06T17:52:00.708Z,41.48
2023-02-06T17:56:07.452Z,41.48
2023-02-06T18:00:13.993Z,41.27
2023-02-06T18:04:19.530Z,41.74
2023-02-06T18:08:21.597Z,41.51
2023-02-06T18:12:23.005Z,41.24
2023-02-06T18:16:27.684Z,40.93
2023-02-06T18:20:29.081Z,42.03
2023-02-06T18:24:30.513Z,42.54
2023-02-06T18:28:32.997Z,42.79
2023-02-06T18:32:36.969Z,41.93
2023-02-06T18:36:38.388Z,40.92
2023-02-06T18:40:41.418Z,42.63
2023-02-06T18:44:42.836Z,42.83
2023-02-06T18:48:44.135Z,41.55
2023-02-06T18:52:45.450Z,41.27
2023-02-06T18:56:49.466Z,42.75
2023-02-06T19:00:51.129Z,43.15
2023-02-06T19:04:54.015Z,41.96
2023-02-06T19:08:56.362Z,41.24
2023-02-06T19:12:57.728Z,41.29
2023-02-06T19:16:59.106Z,41.79
2023-02-06T19:21:00.640Z,41.91
2023-02-06T19:25:03.282Z,40.98
2023-02-06T19:29:05.057Z,40.75
2023-02-06T19:33:06.472Z,42.10
2023-02-06T19:37:09.813Z,40.66
2023-02-06T19:41:16.514Z,40.45
2023-02-06T19:45:18.041Z,39.95
2023-02-06T19:49:19.345Z,41.72
2023-02-06T19:53:20.700Z,40.57
2023-02-06T19:57:22.150Z,40.27
2023-02-06T20:01:24.697Z,40.94
2023-02-06T20:09:40.975Z,40.05
2023-02-06T20:13:42.926Z,40.48
2023-02-06T20:17:44.348Z,40.84
2023-02-06T20:21:49.946Z,39.85
2023-02-06T20:25:51.507Z,38.99
2023-02-06T20:29:52.875Z,39.95
2023-02-06T20:33:54.658Z,41.12
2023-02-06T20:37:56.025Z,41.15
2023-02-06T20:41:57.438Z,39.88
2023-02-06T20:45:58.974Z,40.42
2023-02-06T20:50:01.793Z,39.83
2023-02-06T20:54:03.473Z,40.22
2023-02-06T20:58:05.090Z,40.10
2023-02-06T21:02:06.517Z,40.26
2023-02-06T21:06:08.100Z,39.13
2023-02-06T21:10:09.576Z,41.90
2023-02-06T21:14:11.963Z,42.04
2023-02-06T21:18:13.331Z,40.23
2023-02-06T21:22:14.707Z,39.43
2023-02-06T21:26:18.216Z,39.91
2023-02-06T21:30:19.652Z,41.59
2023-02-06T21:34:22.917Z,39.62
2023-02-06T21:38:25.064Z,40.81
2023-02-06T21:42:27.434Z,42.22
2023-02-06T21:46:31.804Z,40.95
2023-02-06T21:50:34.226Z,42.06
2023-02-06T21:54:35.558Z,40.88
2023-02-06T21:58:37.192Z,40.39
2023-02-06T22:02:38.514Z,40.69
2023-02-06T22:06:40.157Z,40.61
2023-02-06T22:10:41.539Z,41.03
2023-02-06T22:14:42.834Z,41.77
2023-02-06T22:18:44.339Z,41.18
2023-02-06T22:22:46.236Z,40.38
2023-02-06T22:26:47.620Z,40.42
2023-02-06T22:30:49.074Z,41.23
2023-02-06T22:34:51.514Z,40.82
2023-02-06T22:38:58.452Z,40.55
2023-02-06T22:42:59.873Z,39.48
2023-02-06T22:47:01.298Z,39.32
2023-02-06T22:51:07.660Z,39.42
2023-02-06T22:55:09.450Z,40.05
2023-02-06T22:59:19.771Z,40.37
2023-02-06T23:03:21.066Z,38.96
2023-02-06T23:07:22.430Z,39.47
2023-02-06T23:11:25.211Z,39.93
2023-02-06T23:15:27.202Z,39.30
2023-02-06T23:19:29.135Z,39.97
2023-02-06T23:23:30.985Z,39.73
2023-02-06T23:27:32.815Z,39.66
2023-02-06T23:31:35.298Z,39.77
2023-02-06T23:35:38.047Z,39.15
2023-02-06T23:39:39.579Z,39.46
2023-02-06T23:43:41.438Z,38.92
2023-02-06T23:47:42.925Z,40.50
2023-02-06T23:51:44.376Z,39.42
2023-02-06T23:55:45.766Z,38.95
2023-02-06T23:59:47.159Z,38.83
